sensor_id;sensor_type;location;lat;lon;timestamp;P1;durP1;ratioP1;P2;durP2;ratioP2
48205;SDS011;33995;48.202;16.260;2023-04-25T00:00:28;2.57;;;2.37;;
48205;SDS011;33995;48.202;16.260;2023-04-25T00:02:58;2.67;;;2.47;;
48205;SDS011;33995;48.202;16.260;2023-04-25T00:05:27;3.20;;;2.83;;
48205;SDS011;33995;48.202;16.260;2023-04-25T00:07:55;2.83;;;2.60;;
48205;SDS011;33995;48.202;16.260;2023-04-25T00:10:25;3.87;;;2.70;;
48205;SDS011;33995;48.202;16.260;2023-04-25T00:12:56;2.70;;;2.37;;
48205;SDS011;33995;48.202;16.260;2023-04-25T00:15:29;3.23;;;2.50;;
48205;SDS011;33995;48.202;16.260;2023-04-25T00:18:06;2.40;;;2.20;;
48205;SDS011;33995;48.202;16.260;2023-04-25T00:20:39;2.40;;;2.20;;
48205;SDS011;33995;48.202;16.260;2023-04-25T00:23:14;2.53;;;2.33;;
48205;SDS011;33995;48.202;16.260;2023-04-25T00:25:49;2.60;;;2.40;;
48205;SDS011;33995;48.202;16.260;2023-04-25T00:28:24;4.00;;;2.50;;
48205;SDS011;33995;48.202;16.260;2023-04-25T00:30:54;2.97;;;2.30;;
48205;SDS011;33995;48.202;16.260;2023-04-25T00:33:26;2.60;;;2.40;;
48205;SDS011;33995;48.202;16.260;2023-04-25T00:35:55;2.60;;;2.40;;
48205;SDS011;33995;48.202;16.260;2023-04-25T00:38:24;3.30;;;3.00;;
48205;SDS011;33995;48.202;16.260;2023-04-25T00:40:52;2.87;;;2.67;;
48205;SDS011;33995;48.202;16.260;2023-04-25T00:43:26;3.23;;;2.60;;
48205;SDS011;33995;48.202;16.260;2023-04-25T00:45:54;2.70;;;2.43;;
48205;SDS011;33995;48.202;16.260;2023-04-25T00:48:26;2.93;;;2.57;;
48205;SDS011;33995;48.202;16.260;2023-04-25T00:50:54;3.10;;;2.80;;
48205;SDS011;33995;48.202;16.260;2023-04-25T00:53:26;3.87;;;2.53;;
48205;SDS011;33995;48.202;16.260;2023-04-25T00:55:55;2.70;;;2.50;;
48205;SDS011;33995;48.202;16.260;2023-04-25T00:58:25;2.90;;;2.60;;
48205;SDS011;33995;48.202;16.260;2023-04-25T01:00:53;2.70;;;2.50;;
48205;SDS011;33995;48.202;16.260;2023-04-25T01:03:21;3.00;;;2.70;;
48205;SDS011;33995;48.202;16.260;2023-04-25T01:05:54;2.90;;;2.70;;
48205;SDS011;33995;48.202;16.260;2023-04-25T01:08:26;2.67;;;2.47;;
48205;SDS011;33995;48.202;16.260;2023-04-25T01:10:54;2.60;;;2.40;;
48205;SDS011;33995;48.202;16.260;2023-04-25T01:13:28;3.97;;;2.63;;
48205;SDS011;33995;48.202;16.260;2023-04-25T01:15:57;2.60;;;2.40;;
48205;SDS011;33995;48.202;16.260;2023-04-25T01:18:28;2.97;;;2.67;;
48205;SDS011;33995;48.202;16.260;2023-04-25T01:21:11;2.97;;;2.70;;
48205;SDS011;33995;48.202;16.260;2023-04-25T01:23:44;2.60;;;2.40;;
48205;SDS011;33995;48.202;16.260;2023-04-25T01:26:15;3.10;;;2.70;;
48205;SDS011;33995;48.202;16.260;2023-04-25T01:28:43;3.57;;;2.70;;
48205;SDS011;33995;48.202;16.260;2023-04-25T01:31:12;2.90;;;2.70;;
48205;SDS011;33995;48.202;16.260;2023-04-25T01:33:42;3.90;;;2.80;;
48205;SDS011;33995;48.202;16.260;2023-04-25T01:36:13;2.83;;;2.63;;
48205;SDS011;33995;48.202;16.260;2023-04-25T01:38:43;3.17;;;2.87;;
48205;SDS011;33995;48.202;16.260;2023-04-25T01:41:16;3.70;;;2.77;;
48205;SDS011;33995;48.202;16.260;2023-04-25T01:43:46;3.23;;;2.80;;
48205;SDS011;33995;48.202;16.260;2023-04-25T01:46:16;2.87;;;2.67;;
48205;SDS011;33995;48.202;16.260;2023-04-25T01:48:47;3.00;;;2.80;;
48205;SDS011;33995;48.202;16.260;2023-04-25T01:51:17;3.17;;;2.83;;
48205;SDS011;33995;48.202;16.260;2023-04-25T01:53:49;4.40;;;2.90;;
48205;SDS011;33995;48.202;16.260;2023-04-25T01:56:20;3.17;;;2.87;;
48205;SDS011;33995;48.202;16.260;2023-04-25T01:58:50;2.77;;;2.57;;
48205;SDS011;33995;48.202;16.260;2023-04-25T02:01:52;3.00;;;2.80;;
48205;SDS011;33995;48.202;16.260;2023-04-25T02:04:30;3.20;;;2.90;;
48205;SDS011;33995;48.202;16.260;2023-04-25T02:07:04;3.57;;;3.00;;
48205;SDS011;33995;48.202;16.260;2023-04-25T02:10:05;3.20;;;2.90;;
48205;SDS011;33995;48.202;16.260;2023-04-25T02:12:50;3.23;;;2.80;;
48205;SDS011;33995;48.202;16.260;2023-04-25T02:15:35;3.30;;;3.00;;
48205;SDS011;33995;48.202;16.260;2023-04-25T02:18:13;3.67;;;2.60;;
48205;SDS011;33995;48.202;16.260;2023-04-25T02:20:45;3.00;;;2.80;;
48205;SDS011;33995;48.202;16.260;2023-04-25T02:23:16;3.30;;;3.00;;
48205;SDS011;33995;48.202;16.260;2023-04-25T02:25:46;3.30;;;3.00;;
48205;SDS011;33995;48.202;16.260;2023-04-25T02:28:17;3.23;;;2.93;;
48205;SDS011;33995;48.202;16.260;2023-04-25T02:30:48;3.20;;;2.90;;
48205;SDS011;33995;48.202;16.260;2023-04-25T02:33:18;3.50;;;2.90;;
48205;SDS011;33995;48.202;16.260;2023-04-25T02:35:51;3.40;;;3.10;;
48205;SDS011;33995;48.202;16.260;2023-04-25T02:38:22;3.50;;;3.20;;
48205;SDS011;33995;48.202;16.260;2023-04-25T02:40:50;4.57;;;3.20;;
48205;SDS011;33995;48.202;16.260;2023-04-25T02:43:23;3.83;;;3.10;;
48205;SDS011;33995;48.202;16.260;2023-04-25T02:45:54;3.27;;;2.90;;
48205;SDS011;33995;48.202;16.260;2023-04-25T02:48:21;3.10;;;2.90;;
48205;SDS011;33995;48.202;16.260;2023-04-25T02:50:49;3.20;;;2.90;;
48205;SDS011;33995;48.202;16.260;2023-04-25T02:53:22;4.13;;;3.10;;
48205;SDS011;33995;48.202;16.260;2023-04-25T02:55:53;3.93;;;3.30;;
48205;SDS011;33995;48.202;16.260;2023-04-25T02:58:24;3.60;;;3.30;;
48205;SDS011;33995;48.202;16.260;2023-04-25T03:00:54;3.37;;;3.07;;
48205;SDS011;33995;48.202;16.260;2023-04-25T03:03:24;3.37;;;3.03;;
48205;SDS011;33995;48.202;16.260;2023-04-25T03:05:53;3.17;;;2.90;;
48205;SDS011;33995;48.202;16.260;2023-04-25T03:08:30;3.40;;;3.10;;
48205;SDS011;33995;48.202;16.260;2023-04-25T03:11:01;3.50;;;3.20;;
48205;SDS011;33995;48.202;16.260;2023-04-25T03:13:32;3.13;;;2.83;;
48205;SDS011;33995;48.202;16.260;2023-04-25T03:16:03;3.30;;;3.00;;
48205;SDS011;33995;48.202;16.260;2023-04-25T03:18:34;3.40;;;3.10;;
48205;SDS011;33995;48.202;16.260;2023-04-25T03:21:08;3.33;;;3.07;;
48205;SDS011;33995;48.202;16.260;2023-04-25T03:23:38;3.90;;;3.00;;
48205;SDS011;33995;48.202;16.260;2023-04-25T03:26:11;3.60;;;3.20;;
48205;SDS011;33995;48.202;16.260;2023-04-25T03:28:39;4.03;;;3.27;;
48205;SDS011;33995;48.202;16.260;2023-04-25T03:31:12;4.53;;;3.30;;
48205;SDS011;33995;48.202;16.260;2023-04-25T03:33:39;3.50;;;3.20;;
48205;SDS011;33995;48.202;16.260;2023-04-25T03:36:09;3.30;;;3.10;;
48205;SDS011;33995;48.202;16.260;2023-04-25T03:38:41;4.57;;;3.40;;
48205;SDS011;33995;48.202;16.260;2023-04-25T03:41:13;3.60;;;3.30;;
48205;SDS011;33995;48.202;16.260;2023-04-25T03:43:48;3.60;;;3.30;;
48205;SDS011;33995;48.202;16.260;2023-04-25T03:46:19;3.53;;;3.23;;
48205;SDS011;33995;48.202;16.260;2023-04-25T03:48:49;3.37;;;3.07;;
48205;SDS011;33995;48.202;16.260;2023-04-25T03:51:23;3.57;;;3.27;;
48205;SDS011;33995;48.202;16.260;2023-04-25T03:53:56;3.37;;;3.07;;
48205;SDS011;33995;48.202;16.260;2023-04-25T03:56:53;3.30;;;3.00;;
48205;SDS011;33995;48.202;16.260;2023-04-25T03:59:27;4.83;;;3.23;;
48205;SDS011;33995;48.202;16.260;2023-04-25T04:02:00;3.50;;;3.20;;
48205;SDS011;33995;48.202;16.260;2023-04-25T04:04:29;3.43;;;3.13;;
48205;SDS011;33995;48.202;16.260;2023-04-25T04:07:01;3.60;;;3.30;;
48205;SDS011;33995;48.202;16.260;2023-04-25T04:09:36;3.43;;;3.10;;
48205;SDS011;33995;48.202;16.260;2023-04-25T04:12:12;3.43;;;3.13;;
48205;SDS011;33995;48.202;16.260;2023-04-25T04:14:40;3.60;;;3.23;;
48205;SDS011;33995;48.202;16.260;2023-04-25T04:17:09;4.73;;;3.53;;
48205;SDS011;33995;48.202;16.260;2023-04-25T04:19:37;3.67;;;3.23;;
48205;SDS011;33995;48.202;16.260;2023-04-25T04:22:16;3.87;;;3.33;;
48205;SDS011;33995;48.202;16.260;2023-04-25T04:24:48;3.60;;;3.30;;
48205;SDS011;33995;48.202;16.260;2023-04-25T04:27:45;3.37;;;3.07;;
48205;SDS011;33995;48.202;16.260;2023-04-25T04:30:38;3.50;;;3.20;;
48205;SDS011;33995;48.202;16.260;2023-04-25T04:33:11;3.80;;;3.50;;
48205;SDS011;33995;48.202;16.260;2023-04-25T04:35:42;3.93;;;3.63;;
48205;SDS011;33995;48.202;16.260;2023-04-25T04:38:11;4.13;;;3.33;;
48205;SDS011;33995;48.202;16.260;2023-04-25T04:40:38;4.37;;;3.30;;
48205;SDS011;33995;48.202;16.260;2023-04-25T04:43:19;3.70;;;3.40;;
48205;SDS011;33995;48.202;16.260;2023-04-25T04:46:03;4.10;;;3.60;;
48205;SDS011;33995;48.202;16.260;2023-04-25T04:48:42;3.93;;;3.60;;
48205;SDS011;33995;48.202;16.260;2023-04-25T04:51:35;3.80;;;3.50;;
48205;SDS011;33995;48.202;16.260;2023-04-25T04:54:24;4.80;;;3.77;;
48205;SDS011;33995;48.202;16.260;2023-04-25T04:57:25;3.90;;;3.60;;
48205;SDS011;33995;48.202;16.260;2023-04-25T05:00:17;5.17;;;3.67;;
48205;SDS011;33995;48.202;16.260;2023-04-25T05:03:11;3.93;;;3.37;;
48205;SDS011;33995;48.202;16.260;2023-04-25T05:05:49;4.37;;;3.80;;
48205;SDS011;33995;48.202;16.260;2023-04-25T05:08:42;4.20;;;3.80;;
48205;SDS011;33995;48.202;16.260;2023-04-25T05:11:39;3.93;;;3.53;;
48205;SDS011;33995;48.202;16.260;2023-04-25T05:14:22;4.10;;;3.70;;
48205;SDS011;33995;48.202;16.260;2023-04-25T05:17:10;4.30;;;3.90;;
48205;SDS011;33995;48.202;16.260;2023-04-25T05:20:12;4.60;;;4.20;;
48205;SDS011;33995;48.202;16.260;2023-04-25T05:23:00;4.83;;;3.93;;
48205;SDS011;33995;48.202;16.260;2023-04-25T05:25:47;4.80;;;4.40;;
48205;SDS011;33995;48.202;16.260;2023-04-25T05:28:22;4.57;;;4.17;;
48205;SDS011;33995;48.202;16.260;2023-04-25T05:31:16;5.13;;;4.10;;
48205;SDS011;33995;48.202;16.260;2023-04-25T05:34:15;4.47;;;3.97;;
48205;SDS011;33995;48.202;16.260;2023-04-25T05:37:01;4.93;;;4.43;;
48205;SDS011;33995;48.202;16.260;2023-04-25T05:39:33;4.47;;;4.00;;
48205;SDS011;33995;48.202;16.260;2023-04-25T05:42:29;4.43;;;4.03;;
48205;SDS011;33995;48.202;16.260;2023-04-25T05:45:09;4.60;;;4.10;;
48205;SDS011;33995;48.202;16.260;2023-04-25T05:48:10;3.87;;;3.57;;
48205;SDS011;33995;48.202;16.260;2023-04-25T05:51:08;4.40;;;4.00;;
48205;SDS011;33995;48.202;16.260;2023-04-25T05:53:58;4.57;;;4.17;;
48205;SDS011;33995;48.202;16.260;2023-04-25T05:56:33;6.23;;;4.20;;
48205;SDS011;33995;48.202;16.260;2023-04-25T05:59:07;4.57;;;4.10;;
48205;SDS011;33995;48.202;16.260;2023-04-25T06:01:38;4.20;;;3.80;;
48205;SDS011;33995;48.202;16.260;2023-04-25T06:04:10;3.67;;;3.37;;
48205;SDS011;33995;48.202;16.260;2023-04-25T06:06:43;4.10;;;3.50;;
48205;SDS011;33995;48.202;16.260;2023-04-25T06:09:15;4.10;;;3.70;;
48205;SDS011;33995;48.202;16.260;2023-04-25T06:11:46;4.07;;;3.60;;
48205;SDS011;33995;48.202;16.260;2023-04-25T06:14:14;4.30;;;3.63;;
48205;SDS011;33995;48.202;16.260;2023-04-25T06:16:50;4.47;;;3.70;;
48205;SDS011;33995;48.202;16.260;2023-04-25T06:19:20;4.57;;;3.53;;
48205;SDS011;33995;48.202;16.260;2023-04-25T06:21:50;3.90;;;3.60;;
48205;SDS011;33995;48.202;16.260;2023-04-25T06:24:21;3.80;;;3.40;;
48205;SDS011;33995;48.202;16.260;2023-04-25T06:26:49;3.73;;;3.40;;
48205;SDS011;33995;48.202;16.260;2023-04-25T06:29:16;3.60;;;3.30;;
48205;SDS011;33995;48.202;16.260;2023-04-25T06:31:45;3.60;;;3.30;;
48205;SDS011;33995;48.202;16.260;2023-04-25T06:34:17;3.73;;;3.37;;
48205;SDS011;33995;48.202;16.260;2023-04-25T06:36:44;3.93;;;3.53;;
48205;SDS011;33995;48.202;16.260;2023-04-25T06:39:16;3.73;;;3.40;;
48205;SDS011;33995;48.202;16.260;2023-04-25T06:41:50;3.73;;;3.30;;
48205;SDS011;33995;48.202;16.260;2023-04-25T06:44:40;4.50;;;3.40;;
48205;SDS011;33995;48.202;16.260;2023-04-25T06:47:28;3.40;;;3.10;;
48205;SDS011;33995;48.202;16.260;2023-04-25T06:49:58;3.40;;;3.10;;
48205;SDS011;33995;48.202;16.260;2023-04-25T06:52:25;3.50;;;3.20;;
48205;SDS011;33995;48.202;16.260;2023-04-25T06:54:53;4.20;;;3.20;;
48205;SDS011;33995;48.202;16.260;2023-04-25T06:57:56;4.63;;;3.63;;
48205;SDS011;33995;48.202;16.260;2023-04-25T07:00:47;3.50;;;3.20;;
48205;SDS011;33995;48.202;16.260;2023-04-25T07:03:31;3.60;;;3.30;;
48205;SDS011;33995;48.202;16.260;2023-04-25T07:06:07;3.90;;;3.60;;
48205;SDS011;33995;48.202;16.260;2023-04-25T07:08:35;3.63;;;3.30;;
48205;SDS011;33995;48.202;16.260;2023-04-25T07:11:07;3.40;;;3.10;;
48205;SDS011;33995;48.202;16.260;2023-04-25T07:13:36;4.73;;;3.40;;
48205;SDS011;33995;48.202;16.260;2023-04-25T07:16:04;3.30;;;2.97;;
48205;SDS011;33995;48.202;16.260;2023-04-25T07:18:37;3.07;;;2.77;;
48205;SDS011;33995;48.202;16.260;2023-04-25T07:21:09;3.90;;;3.50;;
48205;SDS011;33995;48.202;16.260;2023-04-25T07:23:48;3.30;;;3.00;;
48205;SDS011;33995;48.202;16.260;2023-04-25T07:26:23;3.00;;;2.70;;
48205;SDS011;33995;48.202;16.260;2023-04-25T07:29:14;3.03;;;2.70;;
48205;SDS011;33995;48.202;16.260;2023-04-25T07:31:43;3.30;;;3.00;;
48205;SDS011;33995;48.202;16.260;2023-04-25T07:34:13;3.37;;;3.03;;
48205;SDS011;33995;48.202;16.260;2023-04-25T07:36:47;2.97;;;2.70;;
48205;SDS011;33995;48.202;16.260;2023-04-25T07:39:14;3.40;;;3.10;;
48205;SDS011;33995;48.202;16.260;2023-04-25T07:41:44;3.07;;;2.87;;
48205;SDS011;33995;48.202;16.260;2023-04-25T07:44:28;3.13;;;2.83;;
48205;SDS011;33995;48.202;16.260;2023-04-25T07:46:59;3.70;;;3.40;;
48205;SDS011;33995;48.202;16.260;2023-04-25T07:49:42;3.50;;;3.20;;
48205;SDS011;33995;48.202;16.260;2023-04-25T07:52:10;3.77;;;3.00;;
48205;SDS011;33995;48.202;16.260;2023-04-25T07:54:48;4.57;;;3.13;;
48205;SDS011;33995;48.202;16.260;2023-04-25T07:57:27;4.10;;;3.07;;
48205;SDS011;33995;48.202;16.260;2023-04-25T07:59:58;3.40;;;3.10;;
48205;SDS011;33995;48.202;16.260;2023-04-25T08:02:50;3.33;;;3.03;;
48205;SDS011;33995;48.202;16.260;2023-04-25T08:05:20;4.67;;;3.50;;
48205;SDS011;33995;48.202;16.260;2023-04-25T08:08:02;3.40;;;3.10;;
48205;SDS011;33995;48.202;16.260;2023-04-25T08:10:40;3.07;;;2.87;;
48205;SDS011;33995;48.202;16.260;2023-04-25T08:13:12;4.17;;;2.83;;
48205;SDS011;33995;48.202;16.260;2023-04-25T08:15:45;3.53;;;3.00;;
48205;SDS011;33995;48.202;16.260;2023-04-25T08:18:17;3.30;;;3.00;;
48205;SDS011;33995;48.202;16.260;2023-04-25T08:20:49;3.17;;;2.87;;
48205;SDS011;33995;48.202;16.260;2023-04-25T08:23:21;3.10;;;2.80;;
48205;SDS011;33995;48.202;16.260;2023-04-25T08:26:16;3.60;;;3.30;;
48205;SDS011;33995;48.202;16.260;2023-04-25T08:28:47;3.70;;;2.90;;
48205;SDS011;33995;48.202;16.260;2023-04-25T08:31:14;3.63;;;2.73;;
48205;SDS011;33995;48.202;16.260;2023-04-25T08:33:58;2.83;;;2.63;;
48205;SDS011;33995;48.202;16.260;2023-04-25T08:36:48;2.80;;;2.60;;
48205;SDS011;33995;48.202;16.260;2023-04-25T08:39:44;2.93;;;2.70;;
48205;SDS011;33995;48.202;16.260;2023-04-25T08:42:34;3.00;;;2.70;;
48205;SDS011;33995;48.202;16.260;2023-04-25T08:45:04;2.60;;;2.40;;
48205;SDS011;33995;48.202;16.260;2023-04-25T08:47:38;3.50;;;2.50;;
48205;SDS011;33995;48.202;16.260;2023-04-25T08:50:08;3.00;;;2.80;;
48205;SDS011;33995;48.202;16.260;2023-04-25T08:52:49;3.07;;;2.77;;
48205;SDS011;33995;48.202;16.260;2023-04-25T08:55:27;3.10;;;2.80;;
48205;SDS011;33995;48.202;16.260;2023-04-25T08:57:59;2.90;;;2.70;;
48205;SDS011;33995;48.202;16.260;2023-04-25T09:00:28;4.23;;;3.13;;
48205;SDS011;33995;48.202;16.260;2023-04-25T09:02:57;4.70;;;3.60;;
48205;SDS011;33995;48.202;16.260;2023-04-25T09:05:32;3.80;;;2.87;;
48205;SDS011;33995;48.202;16.260;2023-04-25T09:08:16;3.20;;;3.00;;
48205;SDS011;33995;48.202;16.260;2023-04-25T09:10:46;2.93;;;2.73;;
48205;SDS011;33995;48.202;16.260;2023-04-25T09:13:28;2.70;;;2.50;;
48205;SDS011;33995;48.202;16.260;2023-04-25T09:16:18;3.33;;;3.00;;
48205;SDS011;33995;48.202;16.260;2023-04-25T09:19:21;3.53;;;2.80;;
48205;SDS011;33995;48.202;16.260;2023-04-25T09:22:32;3.40;;;3.10;;
48205;SDS011;33995;48.202;16.260;2023-04-25T09:25:13;5.37;;;3.10;;
48205;SDS011;33995;48.202;16.260;2023-04-25T09:27:54;4.50;;;3.50;;
48205;SDS011;33995;48.202;16.260;2023-04-25T09:30:29;4.10;;;3.50;;
48205;SDS011;33995;48.202;16.260;2023-04-25T09:33:12;4.70;;;3.47;;
48205;SDS011;33995;48.202;16.260;2023-04-25T09:36:01;4.10;;;3.63;;
48205;SDS011;33995;48.202;16.260;2023-04-25T09:38:52;4.10;;;3.70;;
48205;SDS011;33995;48.202;16.260;2023-04-25T09:41:27;4.83;;;3.43;;
48205;SDS011;33995;48.202;16.260;2023-04-25T09:44:02;3.63;;;3.07;;
48205;SDS011;33995;48.202;16.260;2023-04-25T09:46:36;2.53;;;2.30;;
48205;SDS011;33995;48.202;16.260;2023-04-25T09:49:14;2.13;;;2.00;;
48205;SDS011;33995;48.202;16.260;2023-04-25T09:52:04;3.00;;;1.93;;
48205;SDS011;33995;48.202;16.260;2023-04-25T09:54:38;2.47;;;1.90;;
48205;SDS011;33995;48.202;16.260;2023-04-25T10:00:00;2.13;;;1.93;;
48205;SDS011;33995;48.202;16.260;2023-04-25T10:02:51;2.77;;;1.97;;
48205;SDS011;33995;48.202;16.260;2023-04-25T10:06:00;2.50;;;2.00;;
48205;SDS011;33995;48.202;16.260;2023-04-25T10:08:32;2.77;;;1.90;;
48205;SDS011;33995;48.202;16.260;2023-04-25T10:11:05;2.00;;;1.80;;
48205;SDS011;33995;48.202;16.260;2023-04-25T10:13:35;2.27;;;1.90;;
48205;SDS011;33995;48.202;16.260;2023-04-25T10:16:21;2.30;;;2.10;;
48205;SDS011;33995;48.202;16.260;2023-04-25T10:18:59;2.60;;;2.03;;
48205;SDS011;33995;48.202;16.260;2023-04-25T10:21:28;3.00;;;1.80;;
48205;SDS011;33995;48.202;16.260;2023-04-25T10:24:21;1.87;;;1.70;;
48205;SDS011;33995;48.202;16.260;2023-04-25T11:09:53;2.50;;;2.30;;
48205;SDS011;33995;48.202;16.260;2023-04-25T11:12:24;3.50;;;2.30;;
48205;SDS011;33995;48.202;16.260;2023-04-25T11:15:14;3.10;;;2.20;;
48205;SDS011;33995;48.202;16.260;2023-04-25T11:17:46;2.30;;;2.10;;
48205;SDS011;33995;48.202;16.260;2023-04-25T11:20:19;3.00;;;2.30;;
48205;SDS011;33995;48.202;16.260;2023-04-25T11:22:47;3.43;;;2.30;;
48205;SDS011;33995;48.202;16.260;2023-04-25T11:25:19;2.80;;;2.60;;
48205;SDS011;33995;48.202;16.260;2023-04-25T11:30:47;3.17;;;2.80;;
48205;SDS011;33995;48.202;16.260;2023-04-25T11:33:23;4.00;;;2.60;;
48205;SDS011;33995;48.202;16.260;2023-04-25T11:35:59;3.67;;;2.30;;
48205;SDS011;33995;48.202;16.260;2023-04-25T11:38:26;3.87;;;2.30;;
48205;SDS011;33995;48.202;16.260;2023-04-25T11:40:58;4.40;;;2.70;;
48205;SDS011;33995;48.202;16.260;2023-04-25T11:43:29;3.27;;;2.30;;
48205;SDS011;33995;48.202;16.260;2023-04-25T11:46:00;3.67;;;2.90;;
48205;SDS011;33995;48.202;16.260;2023-04-25T11:48:37;3.53;;;2.70;;
48205;SDS011;33995;48.202;16.260;2023-04-25T11:51:11;3.80;;;3.37;;
48205;SDS011;33995;48.202;16.260;2023-04-25T11:53:44;4.73;;;4.20;;
48205;SDS011;33995;48.202;16.260;2023-04-25T11:56:12;4.87;;;4.40;;
48205;SDS011;33995;48.202;16.260;2023-04-25T11:59:02;7.07;;;5.20;;
48205;SDS011;33995;48.202;16.260;2023-04-25T12:01:34;5.67;;;4.40;;
48205;SDS011;33995;48.202;16.260;2023-04-25T12:04:14;3.73;;;3.20;;
48205;SDS011;33995;48.202;16.260;2023-04-25T12:07:03;3.17;;;2.87;;
48205;SDS011;33995;48.202;16.260;2023-04-25T12:09:42;3.37;;;3.07;;
48205;SDS011;33995;48.202;16.260;2023-04-25T12:12:14;2.37;;;2.17;;
48205;SDS011;33995;48.202;16.260;2023-04-25T12:14:46;2.00;;;1.80;;
48205;SDS011;33995;48.202;16.260;2023-04-25T12:17:16;3.17;;;2.30;;
48205;SDS011;33995;48.202;16.260;2023-04-25T12:19:47;2.30;;;2.10;;
48205;SDS011;33995;48.202;16.260;2023-04-25T12:22:22;2.13;;;1.87;;
48205;SDS011;33995;48.202;16.260;2023-04-25T12:24:55;2.20;;;2.00;;
48205;SDS011;33995;48.202;16.260;2023-04-25T12:27:30;2.07;;;1.80;;
48205;SDS011;33995;48.202;16.260;2023-04-25T12:29:59;2.20;;;1.80;;
48205;SDS011;33995;48.202;16.260;2023-04-25T12:32:27;1.83;;;1.70;;
48205;SDS011;33995;48.202;16.260;2023-04-25T12:34:56;2.87;;;2.67;;
48205;SDS011;33995;48.202;16.260;2023-04-25T12:37:26;3.60;;;3.30;;
48205;SDS011;33995;48.202;16.260;2023-04-25T12:39:54;5.10;;;4.47;;
48205;SDS011;33995;48.202;16.260;2023-04-25T12:42:25;3.40;;;2.80;;
48205;SDS011;33995;48.202;16.260;2023-04-25T12:44:54;2.60;;;2.40;;
48205;SDS011;33995;48.202;16.260;2023-04-25T12:47:26;2.20;;;2.07;;
48205;SDS011;33995;48.202;16.260;2023-04-25T12:49:54;2.53;;;1.87;;
48205;SDS011;33995;48.202;16.260;2023-04-25T12:52:24;1.77;;;1.67;;
48205;SDS011;33995;48.202;16.260;2023-04-25T12:54:57;1.60;;;1.50;;
48205;SDS011;33995;48.202;16.260;2023-04-25T12:57:27;1.73;;;1.63;;
48205;SDS011;33995;48.202;16.260;2023-04-25T12:59:58;1.60;;;1.50;;
48205;SDS011;33995;48.202;16.260;2023-04-25T13:02:27;1.57;;;1.47;;
48205;SDS011;33995;48.202;16.260;2023-04-25T13:04:56;3.17;;;1.60;;
48205;SDS011;33995;48.202;16.260;2023-04-25T13:07:32;1.57;;;1.47;;
48205;SDS011;33995;48.202;16.260;2023-04-25T13:10:01;1.70;;;1.60;;
48205;SDS011;33995;48.202;16.260;2023-04-25T13:12:31;1.60;;;1.50;;
48205;SDS011;33995;48.202;16.260;2023-04-25T13:14:58;1.80;;;1.50;;
48205;SDS011;33995;48.202;16.260;2023-04-25T13:17:27;1.53;;;1.40;;
48205;SDS011;33995;48.202;16.260;2023-04-25T13:19:57;1.60;;;1.50;;
48205;SDS011;33995;48.202;16.260;2023-04-25T13:22:26;1.20;;;1.10;;
48205;SDS011;33995;48.202;16.260;2023-04-25T13:24:56;1.50;;;1.40;;
48205;SDS011;33995;48.202;16.260;2023-04-25T13:27:28;1.50;;;1.40;;
48205;SDS011;33995;48.202;16.260;2023-04-25T13:29:58;1.93;;;1.40;;
48205;SDS011;33995;48.202;16.260;2023-04-25T13:32:26;1.30;;;1.20;;
48205;SDS011;33995;48.202;16.260;2023-04-25T13:34:55;1.53;;;1.43;;
48205;SDS011;33995;48.202;16.260;2023-04-25T13:37:24;2.03;;;1.30;;
48205;SDS011;33995;48.202;16.260;2023-04-25T13:39:55;1.60;;;1.27;;
48205;SDS011;33995;48.202;16.260;2023-04-25T13:42:26;1.60;;;1.50;;
48205;SDS011;33995;48.202;16.260;2023-04-25T13:44:55;1.83;;;1.57;;
48205;SDS011;33995;48.202;16.260;2023-04-25T13:47:25;2.17;;;1.90;;
48205;SDS011;33995;48.202;16.260;2023-04-25T13:49:57;1.50;;;1.40;;
48205;SDS011;33995;48.202;16.260;2023-04-25T13:52:25;1.60;;;1.50;;
48205;SDS011;33995;48.202;16.260;2023-04-25T13:54:58;2.67;;;1.30;;
48205;SDS011;33995;48.202;16.260;2023-04-25T13:57:25;1.93;;;1.20;;
48205;SDS011;33995;48.202;16.260;2023-04-25T13:59:54;1.67;;;1.20;;
48205;SDS011;33995;48.202;16.260;2023-04-25T14:02:25;1.20;;;1.10;;
48205;SDS011;33995;48.202;16.260;2023-04-25T14:04:57;1.40;;;1.30;;
48205;SDS011;33995;48.202;16.260;2023-04-25T14:07:26;1.13;;;1.00;;
48205;SDS011;33995;48.202;16.260;2023-04-25T14:09:56;1.13;;;1.00;;
48205;SDS011;33995;48.202;16.260;2023-04-25T14:12:29;1.90;;;1.30;;
48205;SDS011;33995;48.202;16.260;2023-04-25T14:14:56;2.80;;;1.50;;
48205;SDS011;33995;48.202;16.260;2023-04-25T14:17:25;1.20;;;1.10;;
48205;SDS011;33995;48.202;16.260;2023-04-25T14:19:57;1.40;;;1.30;;
48205;SDS011;33995;48.202;16.260;2023-04-25T14:22:28;2.53;;;1.20;;
48205;SDS011;33995;48.202;16.260;2023-04-25T14:25:05;1.53;;;1.43;;
48205;SDS011;33995;48.202;16.260;2023-04-25T14:27:39;1.83;;;1.30;;
48205;SDS011;33995;48.202;16.260;2023-04-25T14:30:07;1.40;;;1.30;;
48205;SDS011;33995;48.202;16.260;2023-04-25T14:32:40;1.63;;;1.43;;
48205;SDS011;33995;48.202;16.260;2023-04-25T14:35:13;2.60;;;1.47;;
48205;SDS011;33995;48.202;16.260;2023-04-25T14:37:48;1.60;;;1.40;;
48205;SDS011;33995;48.202;16.260;2023-04-25T14:40:29;1.30;;;1.20;;
48205;SDS011;33995;48.202;16.260;2023-04-25T14:42:59;2.63;;;1.70;;
48205;SDS011;33995;48.202;16.260;2023-04-25T14:45:37;1.60;;;1.50;;
48205;SDS011;33995;48.202;16.260;2023-04-25T14:48:04;1.83;;;1.70;;
48205;SDS011;33995;48.202;16.260;2023-04-25T14:50:35;2.70;;;1.70;;
48205;SDS011;33995;48.202;16.260;2023-04-25T14:53:02;1.50;;;1.40;;
48205;SDS011;33995;48.202;16.260;2023-04-25T14:55:34;1.93;;;1.60;;
48205;SDS011;33995;48.202;16.260;2023-04-25T14:58:04;1.40;;;1.30;;
48205;SDS011;33995;48.202;16.260;2023-04-25T15:00:37;1.90;;;1.80;;
48205;SDS011;33995;48.202;16.260;2023-04-25T15:03:07;1.97;;;1.80;;
48205;SDS011;33995;48.202;16.260;2023-04-25T15:05:42;2.00;;;1.80;;
48205;SDS011;33995;48.202;16.260;2023-04-25T15:08:13;2.80;;;2.10;;
48205;SDS011;33995;48.202;16.260;2023-04-25T15:10:44;2.57;;;2.10;;
48205;SDS011;33995;48.202;16.260;2023-04-25T15:13:14;2.10;;;2.00;;
48205;SDS011;33995;48.202;16.260;2023-04-25T15:15:43;2.13;;;1.90;;
48205;SDS011;33995;48.202;16.260;2023-04-25T15:18:11;2.07;;;1.80;;
48205;SDS011;33995;48.202;16.260;2023-04-25T15:20:43;2.43;;;1.93;;
48205;SDS011;33995;48.202;16.260;2023-04-25T15:23:10;2.13;;;1.80;;
48205;SDS011;33995;48.202;16.260;2023-04-25T15:25:44;1.60;;;1.50;;
48205;SDS011;33995;48.202;16.260;2023-04-25T15:28:16;1.73;;;1.63;;
48205;SDS011;33995;48.202;16.260;2023-04-25T15:30:50;1.50;;;1.40;;
48205;SDS011;33995;48.202;16.260;2023-04-25T15:33:23;1.73;;;1.63;;
48205;SDS011;33995;48.202;16.260;2023-04-25T15:36:01;2.23;;;1.40;;
48205;SDS011;33995;48.202;16.260;2023-04-25T15:38:30;1.60;;;1.30;;
48205;SDS011;33995;48.202;16.260;2023-04-25T15:41:00;1.60;;;1.50;;
48205;SDS011;33995;48.202;16.260;2023-04-25T15:43:33;1.67;;;1.57;;
48205;SDS011;33995;48.202;16.260;2023-04-25T15:46:12;1.50;;;1.40;;
48205;SDS011;33995;48.202;16.260;2023-04-25T15:48:44;1.83;;;1.40;;
48205;SDS011;33995;48.202;16.260;2023-04-25T15:51:13;1.40;;;1.30;;
48205;SDS011;33995;48.202;16.260;2023-04-25T15:53:45;1.60;;;1.50;;
48205;SDS011;33995;48.202;16.260;2023-04-25T15:56:14;1.50;;;1.40;;
48205;SDS011;33995;48.202;16.260;2023-04-25T15:58:45;1.60;;;1.50;;
48205;SDS011;33995;48.202;16.260;2023-04-25T16:01:14;1.60;;;1.50;;
48205;SDS011;33995;48.202;16.260;2023-04-25T16:03:44;1.50;;;1.40;;
48205;SDS011;33995;48.202;16.260;2023-04-25T16:06:18;1.90;;;1.40;;